createdAt,value
2018-05-16T00:00:45.011Z,0.00
2018-05-16T00:01:45.245Z,0.00
2018-05-16T00:02:45.148Z,0.00
2018-05-16T00:03:45.223Z,0.00
2018-05-16T00:04:45.279Z,0.00
2018-05-16T00:05:45.340Z,0.00
2018-05-16T00:06:45.471Z,0.00
2018-05-16T00:07:45.488Z,0.00
2018-05-16T00:08:45.544Z,0.00
2018-05-16T00:09:45.671Z,0.00
2018-05-16T00:10:45.672Z,0.00
2018-05-16T00:11:45.768Z,0.00
2018-05-16T00:12:45.800Z,0.00
2018-05-16T00:13:45.864Z,0.00
2018-05-16T00:14:45.927Z,0.00
2018-05-16T00:15:45.999Z,0.00
2018-05-16T00:16:46.068Z,0.00
2018-05-16T00:17:46.144Z,0.00
2018-05-16T00:18:46.196Z,0.00
2018-05-16T00:19:46.268Z,0.00
2018-05-16T00:20:46.328Z,0.00
2018-05-16T00:21:46.396Z,0.00
2018-05-16T00:22:46.459Z,0.00
2018-05-16T00:23:46.520Z,0.00
2018-05-16T00:24:46.584Z,0.00
2018-05-16T00:25:46.652Z,0.00
2018-05-16T00:26:46.757Z,0.00
2018-05-16T00:27:46.788Z,0.00
2018-05-16T00:28:46.849Z,0.00
2018-05-16T00:29:46.913Z,0.00
2018-05-16T00:30:46.981Z,0.00
2018-05-16T00:31:47.053Z,0.00
2018-05-16T00:32:47.173Z,0.00
2018-05-16T00:33:47.177Z,0.00
2018-05-16T00:34:47.241Z,0.00
2018-05-16T00:35:47.357Z,0.00
2018-05-16T00:36:47.493Z,0.00
2018-05-16T00:37:47.437Z,0.00
2018-05-16T00:38:47.625Z,0.00
2018-05-16T00:39:47.572Z,0.00
2018-05-16T00:40:47.641Z,0.00
2018-05-16T00:41:47.709Z,0.00
2018-05-16T00:42:47.773Z,0.00
2018-05-16T00:43:47.835Z,0.00
2018-05-16T00:44:47.897Z,0.00
2018-05-16T00:45:47.961Z,0.00
2018-05-16T00:46:48.040Z,0.00
2018-05-16T00:47:48.101Z,0.00
2018-05-16T00:48:48.165Z,0.00
2018-05-16T00:49:48.225Z,0.00
2018-05-16T00:50:48.293Z,0.00
2018-05-16T00:51:48.365Z,0.00
2018-05-16T00:52:48.513Z,0.00
2018-05-16T00:53:48.510Z,0.00
2018-05-16T00:54:48.553Z,0.00
2018-05-16T00:55:48.626Z,0.00
2018-05-16T00:56:48.693Z,0.00
2018-05-16T00:57:48.757Z,0.00
2018-05-16T00:58:48.821Z,0.00
2018-05-16T00:59:48.890Z,0.00
2018-05-16T01:00:48.950Z,0.00
2018-05-16T01:01:49.017Z,0.00
2018-05-16T01:02:49.086Z,0.00
2018-05-16T01:03:49.145Z,0.00
2018-05-16T01:04:49.214Z,0.00
2018-05-16T01:05:49.278Z,0.00
2018-05-16T01:06:49.626Z,0.00
2018-05-16T01:07:51.074Z,0.00
2018-05-16T01:08:49.474Z,0.00
2018-05-16T01:09:49.534Z,0.00
2018-05-16T01:10:49.615Z,0.00
2018-05-16T01:11:49.695Z,0.00
2018-05-16T01:12:49.746Z,0.00
2018-05-16T01:13:49.807Z,0.00
2018-05-16T01:14:49.866Z,0.00
2018-05-16T01:15:49.945Z,0.00
2018-05-16T01:16:50.414Z,0.00
2018-05-16T01:17:50.082Z,0.00
2018-05-16T01:18:50.460Z,0.00
2018-05-16T01:19:50.198Z,0.00
2018-05-16T01:20:50.262Z,0.00
2018-05-16T01:21:50.342Z,0.00
2018-05-16T01:22:50.398Z,0.00
2018-05-16T01:23:50.458Z,0.00
2018-05-16T01:24:50.651Z,0.00
2018-05-16T01:25:50.591Z,0.00
2018-05-16T01:26:50.727Z,0.00
2018-05-16T01:27:50.742Z,0.00
2018-05-16T01:28:50.798Z,0.00
2018-05-16T01:29:50.899Z,0.00
2018-05-16T01:30:50.914Z,0.00
2018-05-16T01:31:50.994Z,0.00
2018-05-16T01:32:51.075Z,0.00
2018-05-16T01:33:51.123Z,0.00
2018-05-16T01:34:51.191Z,0.00
2018-05-16T01:35:51.395Z,0.00
2018-05-16T01:36:51.351Z,0.00
2018-05-16T01:37:51.383Z,0.00
2018-05-16T01:38:51.443Z,0.00
2018-05-16T01:39:51.530Z,0.00
2018-05-16T01:40:51.579Z,0.00
2018-05-16T01:41:51.767Z,0.00
2018-05-16T01:42:51.723Z,0.00
2018-05-16T01:43:51.772Z,0.00
2018-05-16T01:44:51.832Z,0.00
2018-05-16T01:45:51.895Z,0.00
2018-05-16T01:46:51.987Z,0.00
2018-05-16T01:47:52.047Z,0.00
2018-05-16T01:48:52.435Z,0.00
2018-05-16T01:49:52.235Z,0.00
2018-05-16T01:50:52.228Z,0.00
2018-05-16T01:51:52.299Z,0.00
2018-05-16T01:52:52.519Z,0.00
2018-05-16T01:53:52.952Z,0.00
2018-05-16T01:54:52.495Z,0.00
2018-05-16T01:55:52.596Z,0.00
2018-05-16T01:56:52.668Z,0.00
2018-05-16T01:57:52.708Z,0.00
2018-05-16T01:58:52.768Z,0.00
2018-05-16T01:59:52.822Z,0.00
2018-05-16T02:00:52.901Z,0.00
2018-05-16T02:01:52.952Z,0.00
2018-05-16T02:02:53.016Z,0.00
2018-05-16T02:03:53.096Z,0.00
2018-05-16T02:04:53.464Z,0.00
2018-05-16T02:05:53.249Z,0.00
2018-05-16T02:06:53.287Z,0.00
2018-05-16T02:07:53.517Z,0.00
2018-05-16T02:08:53.408Z,0.00
2018-05-16T02:09:53.664Z,0.00
2018-05-16T02:10:53.544Z,0.00
2018-05-16T02:11:53.604Z,0.00
2018-05-16T02:12:53.680Z,0.00
2018-05-16T02:13:53.741Z,0.00
2018-05-16T02:14:53.800Z,0.00
2018-05-16T02:15:53.864Z,0.00
2018-05-16T02:16:53.933Z,0.00
2018-05-16T02:17:54.041Z,0.00
2018-05-16T02:18:54.072Z,0.00
2018-05-16T02:19:54.128Z,0.00
2018-05-16T02:20:54.197Z,0.00
2018-05-16T02:21:54.261Z,0.00
2018-05-16T02:22:54.701Z,0.00
2018-05-16T02:23:54.401Z,0.00
2018-05-16T02:24:54.453Z,0.00
2018-05-16T02:25:54.521Z,0.00
2018-05-16T02:26:54.801Z,0.00
2018-05-16T02:27:54.661Z,0.00
2018-05-16T02:28:54.724Z,0.00
2018-05-16T02:29:54.781Z,0.00
2018-05-16T02:30:54.851Z,0.00
2018-05-16T02:31:54.980Z,0.00
2018-05-16T02:32:54.994Z,0.00
2018-05-16T02:33:55.050Z,0.00
2018-05-16T02:34:55.109Z,0.00
2018-05-16T02:35:55.230Z,0.00
2018-05-16T02:36:55.234Z,0.00
2018-05-16T02:37:55.578Z,0.00
2018-05-16T02:38:55.374Z,0.00
2018-05-16T02:39:55.430Z,0.00
2018-05-16T02:40:55.498Z,0.00
2018-05-16T02:41:55.562Z,0.00
2018-05-16T02:42:55.634Z,0.00
2018-05-16T02:43:55.778Z,0.00
2018-05-16T02:44:55.766Z,0.00
2018-05-16T02:45:55.827Z,0.00
2018-05-16T02:46:55.890Z,0.00
2018-05-16T02:47:56.075Z,0.00
2018-05-16T02:48:56.030Z,0.00
2018-05-16T02:49:56.084Z,0.00
2018-05-16T02:50:56.155Z,0.00
2018-05-16T02:51:56.295Z,0.00
2018-05-16T02:52:56.287Z,0.00
2018-05-16T02:53:56.470Z,0.00
2018-05-16T02:54:56.410Z,0.00
2018-05-16T02:55:56.478Z,0.00
2018-05-16T02:56:56.551Z,0.00
2018-05-16T02:57:56.606Z,0.00
2018-05-16T02:58:56.678Z,0.00
2018-05-16T02:59:56.749Z,0.00
2018-05-16T03:00:56.807Z,0.00
2018-05-16T03:01:56.867Z,0.00
2018-05-16T03:02:57.023Z,0.00
2018-05-16T03:03:57.007Z,0.00
2018-05-16T03:04:57.103Z,0.00
2018-05-16T03:05:57.130Z,0.00
2018-05-16T03:06:57.243Z,0.00
2018-05-16T03:07:57.258Z,0.00
2018-05-16T03:08:57.327Z,0.00
2018-05-16T03:09:57.550Z,4.00
2018-05-16T03:10:57.627Z,4.00
2018-05-16T03:11:57.523Z,0.00
2018-05-16T03:12:57.709Z,4.00
2018-05-16T03:13:57.651Z,4.00
2018-05-16T03:14:57.723Z,4.00
2018-05-16T03:15:57.789Z,4.00
2018-05-16T03:16:57.939Z,4.00
2018-05-16T03:17:57.982Z,8.00
2018-05-16T03:18:57.979Z,8.00
2018-05-16T03:19:58.052Z,12.00
2018-05-16T03:20:58.127Z,12.00
2018-05-16T03:21:58.175Z,12.00
2018-05-16T03:22:58.277Z,12.00
2018-05-16T03:23:58.304Z,16.00
2018-05-16T03:24:58.723Z,16.00
2018-05-16T03:25:58.487Z,24.00
2018-05-16T03:26:58.496Z,24.00
2018-05-16T03:27:58.564Z,28.00
2018-05-16T03:28:58.632Z,32.00
2018-05-16T03:29:58.700Z,32.00
2018-05-16T03:30:58.768Z,40.00
2018-05-16T03:31:58.830Z,44.00
2018-05-16T03:32:58.933Z,44.00
2018-05-16T03:33:58.956Z,52.00
2018-05-16T03:34:59.032Z,56.00
2018-05-16T03:35:59.091Z,64.00
2018-05-16T03:36:59.152Z,68.00
2018-05-16T03:37:59.219Z,76.00
2018-05-16T03:38:59.280Z,80.00
2018-05-16T03:39:59.692Z,88.00
2018-05-16T03:40:59.412Z,96.00
2018-05-16T03:41:59.480Z,104.00
2018-05-16T03:42:59.540Z,116.00
2018-05-16T03:43:59.608Z,120.00
2018-05-16T03:44:59.672Z,132.00
2018-05-16T03:46:00.007Z,140.00
2018-05-16T03:46:59.800Z,152.00
2018-05-16T03:47:59.933Z,164.00
2018-05-16T03:48:59.932Z,172.00
2018-05-16T03:49:59.996Z,184.00
2018-05-16T03:51:00.148Z,196.00
2018-05-16T03:52:00.180Z,204.00
2018-05-16T03:53:00.196Z,212.00
2018-05-16T03:54:00.281Z,224.00
2018-05-16T03:55:00.320Z,232.00
2018-05-16T03:56:00.392Z,248.00
2018-05-16T03:57:00.545Z,268.00
2018-05-16T03:58:00.517Z,288.00
2018-05-16T03:59:00.581Z,304.00
2018-05-16T04:00:00.645Z,320.00
2018-05-16T04:01:00.717Z,336.00
2018-05-16T04:02:00.788Z,344.00
2018-05-16T04:03:00.841Z,352.00
2018-05-16T04:04:00.965Z,356.00
2018-05-16T04:05:00.973Z,364.00
2018-05-16T04:06:01.161Z,376.00
2018-05-16T04:07:01.109Z,388.00
2018-05-16T04:08:01.165Z,408.00
2018-05-16T04:09:01.233Z,436.00
2018-05-16T04:10:01.297Z,464.00
2018-05-16T04:11:01.389Z,496.00
2018-05-16T04:12:01.426Z,532.00
2018-05-16T04:13:01.490Z,576.00
2018-05-16T04:14:01.553Z,620.00
2018-05-16T04:15:01.622Z,668.00
2018-05-16T04:16:01.694Z,716.00
2018-05-16T04:17:01.758Z,760.00
2018-05-16T04:18:01.882Z,808.00
2018-05-16T04:19:01.878Z,852.00
2018-05-16T04:20:01.949Z,892.00
2018-05-16T04:21:02.022Z,932.00
2018-05-16T04:22:02.081Z,980.00
2018-05-16T04:23:02.138Z,1036.00
2018-05-16T04:24:02.205Z,1096.00
2018-05-16T04:25:02.366Z,1152.00
2018-05-16T04:26:02.338Z,1212.00
2018-05-16T04:27:02.406Z,1272.00
2018-05-16T04:28:02.462Z,1332.00
2018-05-16T04:29:02.534Z,1400.00
2018-05-16T04:30:02.596Z,1488.00
2018-05-16T04:31:02.666Z,1568.00
2018-05-16T04:32:02.731Z,1620.00
2018-05-16T04:33:02.786Z,1676.00
2018-05-16T04:34:02.851Z,1708.00
2018-05-16T04:35:02.919Z,1720.00
2018-05-16T04:36:03.044Z,1724.00
2018-05-16T04:37:03.055Z,1732.00
2018-05-16T04:38:03.111Z,1756.00
2018-05-16T04:39:03.178Z,1788.00
2018-05-16T04:40:03.243Z,1824.00
2018-05-16T04:41:03.335Z,1852.00
2018-05-16T04:42:03.511Z,1888.00
2018-05-16T04:43:03.518Z,1920.00
2018-05-16T04:44:03.503Z,1964.00
2018-05-16T04:45:03.655Z,2000.00
2018-05-16T04:46:03.638Z,2032.00
2018-05-16T04:47:03.702Z,2060.00
2018-05-16T04:48:03.763Z,2076.00
2018-05-16T04:49:03.828Z,2072.00
2018-05-16T04:50:03.891Z,2056.00
2018-05-16T04:51:04.060Z,2044.00
2018-05-16T04:52:04.027Z,2036.00
2018-05-16T04:53:04.088Z,2024.00
2018-05-16T04:54:04.208Z,2000.00
2018-05-16T04:55:04.215Z,1980.00
2018-05-16T04:56:04.443Z,1964.00
2018-05-16T04:57:04.367Z,1952.00
2018-05-16T04:58:04.435Z,1964.00
2018-05-16T04:59:04.475Z,2020.00
2018-05-16T05:00:04.545Z,2092.00
2018-05-16T05:01:04.732Z,2148.00
2018-05-16T05:02:04.679Z,2200.00
2018-05-16T05:03:04.736Z,2240.00
2018-05-16T05:04:04.803Z,2268.00
2018-05-16T05:05:04.991Z,2284.00
2018-05-16T05:06:04.939Z,2308.00
2018-05-16T05:07:05.009Z,2328.00
2018-05-16T05:08:05.140Z,2364.00
2018-05-16T05:09:05.127Z,2408.00
2018-05-16T05:10:05.191Z,2488.00
2018-05-16T05:11:05.293Z,2592.00
2018-05-16T05:12:05.323Z,2676.00
2018-05-16T05:13:05.389Z,2792.00
2018-05-16T05:14:05.498Z,2940.00
2018-05-16T05:15:05.520Z,3100.00
2018-05-16T05:16:05.640Z,3256.00
2018-05-16T05:17:05.656Z,3392.00
2018-05-16T05:18:05.712Z,3500.00
2018-05-16T05:19:05.780Z,3576.00
2018-05-16T05:20:05.845Z,3640.00
2018-05-16T05:21:05.920Z,3708.00
2018-05-16T05:22:06.124Z,3800.00
2018-05-16T05:23:06.041Z,3916.00
2018-05-16T05:24:06.163Z,4032.00
2018-05-16T05:25:06.264Z,4140.00
2018-05-16T05:26:06.793Z,4240.00
2018-05-16T05:27:06.300Z,4328.00
2018-05-16T05:28:06.368Z,4412.00
2018-05-16T05:29:06.477Z,4496.00
2018-05-16T05:30:06.517Z,4584.00
2018-05-16T05:31:06.623Z,4664.00
2018-05-16T05:32:06.693Z,4724.00
2018-05-16T05:33:06.693Z,4752.00
2018-05-16T05:34:06.785Z,4748.00
2018-05-16T05:35:06.825Z,4724.00
2018-05-16T05:36:06.898Z,4700.00
2018-05-16T05:37:06.965Z,4724.00
2018-05-16T05:38:07.029Z,4784.00
2018-05-16T05:39:07.090Z,4840.00
2018-05-16T05:40:07.157Z,4896.00
2018-05-16T05:41:07.221Z,4944.00
2018-05-16T05:42:07.285Z,4960.00
2018-05-16T05:43:07.609Z,4940.00
2018-05-16T05:44:07.413Z,4916.00
2018-05-16T05:45:07.481Z,4896.00
2018-05-16T05:46:07.565Z,4904.00
2018-05-16T05:47:07.613Z,4936.00
2018-05-16T05:48:07.685Z,4960.00
2018-05-16T05:49:07.849Z,4988.00
2018-05-16T05:50:07.901Z,5012.00
2018-05-16T05:51:07.881Z,5020.00
2018-05-16T05:52:07.941Z,5020.00
2018-05-16T05:53:08.014Z,5020.00
2018-05-16T05:54:08.661Z,4996.00
2018-05-16T05:55:08.149Z,4964.00
2018-05-16T05:56:08.205Z,4928.00
2018-05-16T05:57:08.277Z,4920.00
2018-05-16T05:58:08.342Z,4904.00
2018-05-16T05:59:08.410Z,4872.00
2018-05-16T06:00:08.565Z,4824.00
2018-05-16T06:01:08.556Z,4780.00
2018-05-16T06:02:08.597Z,4764.00
2018-05-16T06:03:08.721Z,4768.00
2018-05-16T06:04:08.754Z,4796.00
2018-05-16T06:05:08.829Z,4808.00
2018-05-16T06:06:08.862Z,4816.00
2018-05-16T06:07:08.930Z,4820.00
2018-05-16T06:08:09.065Z,4828.00
2018-05-16T06:09:09.067Z,4840.00
2018-05-16T06:10:09.126Z,4868.00
2018-05-16T06:11:09.189Z,4904.00
2018-05-16T06:12:09.258Z,4968.00
2018-05-16T06:13:09.325Z,5040.00
2018-05-16T06:14:09.418Z,5116.00
2018-05-16T06:15:10.754Z,5180.00
2018-05-16T06:16:09.522Z,5224.00
2018-05-16T06:17:09.587Z,5244.00
2018-05-16T06:18:09.654Z,5268.00
2018-05-16T06:19:09.729Z,5348.00
2018-05-16T06:20:09.790Z,5416.00
2018-05-16T06:21:09.850Z,5468.00
2018-05-16T06:22:09.915Z,5508.00
2018-05-16T06:23:09.982Z,5596.00
2018-05-16T06:24:10.054Z,5756.00
2018-05-16T06:25:10.222Z,5880.00
2018-05-16T06:26:10.179Z,10796.00
2018-05-16T06:27:10.343Z,27232.00
2018-05-16T06:28:10.314Z,44288.00
2018-05-16T06:29:10.398Z,51360.00
2018-05-16T06:30:10.447Z,52384.00
2018-05-16T06:31:10.515Z,51488.00
2018-05-16T06:32:10.583Z,53216.00
2018-05-16T06:33:10.650Z,53248.00
2018-05-16T06:34:10.727Z,52992.00
2018-05-16T06:35:10.795Z,52672.00
2018-05-16T06:36:10.861Z,53376.00
2018-05-16T06:37:10.931Z,52928.00
2018-05-16T06:38:10.999Z,51616.00
2018-05-16T06:39:11.423Z,51936.00
2018-05-16T06:40:11.148Z,52512.00
2018-05-16T06:41:11.215Z,52608.00
2018-05-16T06:42:11.287Z,52768.00
2018-05-16T06:43:11.359Z,53120.00
2018-05-16T06:44:11.563Z,52672.00
2018-05-16T06:45:11.515Z,51744.00
2018-05-16T06:46:11.583Z,52160.00
2018-05-16T06:47:11.655Z,51328.00
2018-05-16T06:48:11.731Z,50976.00
2018-05-16T06:49:11.815Z,51776.00
2018-05-16T06:50:11.887Z,52512.00
2018-05-16T06:51:11.959Z,52864.00
2018-05-16T06:52:12.036Z,52384.00
2018-05-16T06:53:12.119Z,52000.00
2018-05-16T06:54:13.879Z,51392.00
2018-05-16T06:55:12.267Z,51680.00
2018-05-16T06:56:12.359Z,51968.00
2018-05-16T06:57:12.424Z,52064.00
2018-05-16T06:58:12.496Z,52704.00
2018-05-16T06:59:12.571Z,52032.00
2018-05-16T07:00:12.852Z,51616.00
2018-05-16T07:01:12.728Z,51520.00
2018-05-16T07:02:12.808Z,52192.00
2018-05-16T07:03:12.884Z,52640.00
2018-05-16T07:04:13.041Z,52352.00
2018-05-16T07:05:13.068Z,51808.00
2018-05-16T07:06:13.128Z,51392.00
2018-05-16T07:07:13.200Z,50688.00
2018-05-16T07:08:13.280Z,49792.00
2018-05-16T07:09:13.356Z,51840.00
2018-05-16T07:10:13.444Z,50176.00
2018-05-16T07:11:13.520Z,50368.00
2018-05-16T07:12:13.832Z,52032.00
2018-05-16T07:13:13.668Z,47680.00
2018-05-16T07:14:13.749Z,50688.00
2018-05-16T07:15:14.160Z,52320.00
2018-05-16T07:16:13.928Z,48512.00
2018-05-16T07:17:13.997Z,48960.00
2018-05-16T07:18:14.073Z,52352.00
2018-05-16T07:19:14.152Z,51968.00
2018-05-16T07:20:14.372Z,51136.00
2018-05-16T07:21:14.313Z,51424.00
2018-05-16T07:22:14.397Z,51104.00
2018-05-16T07:23:16.200Z,51040.00
2018-05-16T07:24:17.209Z,49056.00
2018-05-16T07:25:14.653Z,48832.00
2018-05-16T07:26:14.833Z,50432.00
2018-05-16T07:27:14.789Z,50624.00
2018-05-16T07:28:14.873Z,51968.00
2018-05-16T07:29:15.353Z,53952.00
2018-05-16T07:30:15.190Z,64576.00
2018-05-16T07:31:15.117Z,64960.00
2018-05-16T07:32:15.189Z,49248.00
2018-05-16T07:33:15.265Z,45440.00
2018-05-16T07:34:15.345Z,42624.00
2018-05-16T07:35:15.478Z,38272.00
2018-05-16T07:36:15.545Z,37472.00
2018-05-16T07:37:15.594Z,35712.00
2018-05-16T07:38:15.669Z,30752.00
2018-05-16T07:39:15.758Z,23936.00
2018-05-16T07:40:15.837Z,17344.00
2018-05-16T07:41:16.027Z,15360.00
2018-05-16T07:42:15.989Z,15424.00
2018-05-16T07:43:16.078Z,16192.00
2018-05-16T07:44:17.002Z,16256.00
2018-05-16T07:45:16.390Z,15872.00
2018-05-16T07:46:16.329Z,16128.00
2018-05-16T07:47:16.393Z,16416.00
2018-05-16T07:48:16.474Z,16448.00
2018-05-16T07:49:16.574Z,16640.00
2018-05-16T07:50:18.222Z,21664.00
2018-05-16T07:51:16.746Z,29248.00
2018-05-16T07:52:16.794Z,30336.00
2018-05-16T07:53:16.906Z,31328.00
2018-05-16T07:54:16.955Z,43008.00
2018-05-16T07:55:17.058Z,50656.00
2018-05-16T07:56:17.118Z,46880.00
2018-05-16T07:57:17.193Z,46400.00
2018-05-16T07:58:17.370Z,43168.00
2018-05-16T07:59:17.354Z,16480.00
2018-05-16T08:00:17.458Z,37312.00
2018-05-16T08:01:17.515Z,37184.00
2018-05-16T08:02:17.594Z,36256.00
2018-05-16T08:03:17.708Z,35360.00
2018-05-16T08:04:18.317Z,33440.00
2018-05-16T08:05:17.847Z,32384.00
2018-05-16T08:06:17.930Z,31200.00
2018-05-16T08:07:17.995Z,31936.00
2018-05-16T08:08:18.079Z,31328.00
2018-05-16T08:09:18.158Z,30688.00
2018-05-16T08:10:18.263Z,30176.00
2018-05-16T08:11:18.319Z,29760.00
2018-05-16T08:12:19.295Z,28288.00
2018-05-16T08:13:18.479Z,26592.00
2018-05-16T08:14:18.561Z,26784.00
2018-05-16T08:15:18.658Z,23360.00
2018-05-16T08:16:18.735Z,25312.00
2018-05-16T08:17:18.805Z,25920.00
2018-05-16T08:18:18.881Z,21472.00
2018-05-16T08:19:19.304Z,22880.00
2018-05-16T08:20:20.732Z,24416.00
2018-05-16T08:21:19.130Z,11348.00
2018-05-16T08:22:19.207Z,20608.00
2018-05-16T08:23:19.279Z,19296.00
2018-05-16T08:24:19.388Z,17728.00
2018-05-16T08:25:22.291Z,20384.00
2018-05-16T08:26:22.340Z,22912.00
2018-05-16T08:27:19.599Z,25536.00
2018-05-16T08:28:29.612Z,24960.00
2018-05-16T08:29:19.784Z,21696.00
2018-05-16T08:30:19.837Z,20192.00
2018-05-16T08:31:21.152Z,20416.00
2018-05-16T08:32:20.005Z,11936.00
2018-05-16T08:33:20.059Z,10500.00
2018-05-16T08:34:21.305Z,20800.00
2018-05-16T08:35:20.224Z,16352.00
2018-05-16T08:36:20.288Z,12120.00
2018-05-16T08:37:20.508Z,9208.00
2018-05-16T08:38:20.456Z,9144.00
2018-05-16T08:39:20.520Z,9060.00
2018-05-16T08:40:20.740Z,9036.00
2018-05-16T08:41:20.686Z,8252.00
2018-05-16T08:42:20.812Z,7732.00
2018-05-16T08:43:20.833Z,7260.00
2018-05-16T08:44:20.911Z,6740.00
2018-05-16T08:45:21.480Z,6312.00
2018-05-16T08:46:21.057Z,5844.00
2018-05-16T08:47:21.453Z,5420.00
2018-05-16T08:48:21.201Z,5120.00
2018-05-16T08:49:21.327Z,4920.00
2018-05-16T08:50:21.357Z,4784.00
2018-05-16T08:51:21.437Z,4660.00
2018-05-16T08:52:21.526Z,4492.00
2018-05-16T08:53:21.605Z,4268.00
2018-05-16T08:54:21.661Z,4108.00
2018-05-16T08:55:21.714Z,4108.00
2018-05-16T08:56:22.405Z,4228.00
2018-05-16T08:57:21.899Z,4432.00
2018-05-16T08:58:21.941Z,4644.00
2018-05-16T08:59:22.458Z,4880.00
2018-05-16T09:00:22.102Z,5184.00
2018-05-16T09:01:22.155Z,5608.00
2018-05-16T09:02:22.265Z,6196.00
2018-05-16T09:03:22.301Z,6932.00
2018-05-16T09:04:22.370Z,7824.00
2018-05-16T09:05:22.441Z,8664.00
2018-05-16T09:06:24.014Z,9548.00
2018-05-16T09:07:22.674Z,10388.00
2018-05-16T09:08:22.710Z,12832.00
2018-05-16T09:09:22.730Z,11604.00
2018-05-16T09:10:23.165Z,12012.00
2018-05-16T09:11:22.881Z,12080.00
2018-05-16T09:12:22.962Z,10800.00
2018-05-16T09:13:23.018Z,13196.00
2018-05-16T09:14:23.321Z,10856.00
2018-05-16T09:15:23.182Z,13368.00
2018-05-16T09:16:23.226Z,12416.00
2018-05-16T09:17:23.460Z,13248.00
2018-05-16T09:18:23.874Z,10016.00
2018-05-16T09:19:23.446Z,9256.00
2018-05-16T09:20:23.505Z,9492.00
2018-05-16T09:21:23.770Z,10268.00
2018-05-16T09:22:23.666Z,11276.00
2018-05-16T09:23:23.730Z,12044.00
2018-05-16T09:24:23.798Z,10900.00
2018-05-16T09:25:24.190Z,15552.00
2018-05-16T09:26:23.936Z,14112.00
2018-05-16T09:27:24.030Z,13828.00
2018-05-16T09:28:24.094Z,11128.00
2018-05-16T09:29:24.150Z,12332.00
2018-05-16T09:30:24.387Z,13356.00
2018-05-16T09:31:24.317Z,11136.00
2018-05-16T09:32:24.382Z,16672.00
2018-05-16T09:33:24.457Z,16384.00
2018-05-16T09:34:24.755Z,10616.00
2018-05-16T09:35:24.598Z,13336.00
2018-05-16T09:36:24.665Z,11872.00
2018-05-16T09:37:24.750Z,9044.00
2018-05-16T09:38:24.810Z,15360.00
2018-05-16T09:39:24.875Z,15040.00
2018-05-16T09:40:24.972Z,11980.00
2018-05-16T09:41:25.023Z,8172.00
2018-05-16T09:42:25.207Z,8956.00
2018-05-16T09:43:25.159Z,9940.00
2018-05-16T09:44:25.239Z,10400.00
2018-05-16T09:45:25.311Z,9980.00
2018-05-16T09:46:25.379Z,9624.00
2018-05-16T09:47:25.463Z,10168.00
2018-05-16T09:48:25.539Z,11380.00
2018-05-16T09:49:25.596Z,12176.00
2018-05-16T09:50:25.667Z,11068.00
2018-05-16T09:51:26.170Z,11408.00
2018-05-16T09:52:25.983Z,9408.00
2018-05-16T09:53:25.915Z,8528.00
2018-05-16T09:54:26.152Z,7860.00
2018-05-16T09:55:26.071Z,7964.00
2018-05-16T09:56:26.100Z,8084.00
2018-05-16T09:57:26.177Z,8476.00
2018-05-16T09:58:26.284Z,8144.00
2018-05-16T09:59:26.321Z,8764.00
2018-05-16T10:00:26.388Z,10544.00
2018-05-16T10:01:26.807Z,8020.00
2018-05-16T10:02:26.543Z,8932.00
2018-05-16T10:03:26.784Z,7900.00
2018-05-16T10:04:26.680Z,7576.00
2018-05-16T10:05:26.744Z,7640.00
2018-05-16T10:06:27.052Z,9276.00
2018-05-16T10:07:27.045Z,8780.00
2018-05-16T10:08:26.964Z,7360.00
2018-05-16T10:09:27.116Z,7012.00
2018-05-16T10:10:27.100Z,7112.00
2018-05-16T10:11:27.173Z,7028.00
2018-05-16T10:12:27.544Z,7128.00
2018-05-16T10:13:27.312Z,6752.00
2018-05-16T10:14:27.538Z,6168.00
2018-05-16T10:15:27.460Z,5624.00
2018-05-16T10:16:27.533Z,5032.00
2018-05-16T10:17:27.601Z,4720.00
2018-05-16T10:18:27.669Z,4836.00
2018-05-16T10:19:27.748Z,5016.00
2018-05-16T10:20:27.821Z,5056.00
2018-05-16T10:21:27.889Z,4740.00
2018-05-16T10:22:27.953Z,4344.00
2018-05-16T10:23:28.025Z,3952.00
2018-05-16T10:24:28.201Z,3292.00
2018-05-16T10:25:28.429Z,2960.00
2018-05-16T10:26:28.237Z,2784.00
2018-05-16T10:27:28.305Z,2712.00
2018-05-16T10:28:28.377Z,2664.00
2018-05-16T10:29:28.453Z,2664.00
2018-05-16T10:30:28.529Z,2740.00
2018-05-16T10:31:28.986Z,2856.00
2018-05-16T10:32:28.658Z,2944.00
2018-05-16T10:33:28.730Z,2916.00
2018-05-16T10:34:28.852Z,2772.00
2018-05-16T10:35:28.874Z,2652.00
2018-05-16T10:36:28.937Z,2576.00
2018-05-16T10:37:29.198Z,2564.00
2018-05-16T10:38:29.078Z,2564.00
2018-05-16T10:39:29.165Z,2588.00
2018-05-16T10:40:29.218Z,2664.00
2018-05-16T10:41:29.340Z,2844.00
2018-05-16T10:42:29.354Z,3088.00
2018-05-16T10:43:29.781Z,3248.00
2018-05-16T10:44:29.508Z,3208.00
2018-05-16T10:45:29.646Z,3028.00
2018-05-16T10:46:29.633Z,2848.00
2018-05-16T10:47:29.704Z,2664.00
2018-05-16T10:48:29.770Z,2544.00
2018-05-16T10:49:30.346Z,2604.00
2018-05-16T10:50:29.939Z,2792.00
2018-05-16T10:51:30.239Z,3036.00
2018-05-16T10:52:30.183Z,3240.00
2018-05-16T10:53:30.119Z,3252.00
2018-05-16T10:54:30.187Z,3096.00
2018-05-16T10:55:30.279Z,2784.00
2018-05-16T10:56:30.323Z,2496.00
2018-05-16T10:57:30.490Z,2324.00
2018-05-16T10:58:30.462Z,2304.00
2018-05-16T10:59:30.538Z,2488.00
2018-05-16T11:00:30.611Z,2868.00
2018-05-16T11:01:30.683Z,3296.00
2018-05-16T11:02:30.743Z,3640.00
2018-05-16T11:03:31.711Z,4012.00
2018-05-16T11:04:30.915Z,4436.00
2018-05-16T11:05:30.959Z,4900.00
2018-05-16T11:06:31.056Z,5312.00
2018-05-16T11:07:31.083Z,5624.00
2018-05-16T11:08:31.155Z,5980.00
2018-05-16T11:09:31.223Z,6208.00
2018-05-16T11:10:31.357Z,6320.00
2018-05-16T11:11:31.362Z,6256.00
2018-05-16T11:12:31.432Z,6200.00
2018-05-16T11:13:31.499Z,6440.00
2018-05-16T11:14:31.695Z,6176.00
2018-05-16T11:15:31.643Z,5796.00
2018-05-16T11:16:31.716Z,5628.00
2018-05-16T11:17:31.855Z,5424.00
2018-05-16T11:18:31.844Z,5320.00
2018-05-16T11:19:31.916Z,5520.00
2018-05-16T11:20:31.992Z,6000.00
2018-05-16T11:21:32.060Z,6564.00
2018-05-16T11:22:32.123Z,7172.00
2018-05-16T11:23:32.195Z,7600.00
2018-05-16T11:24:32.267Z,7788.00
2018-05-16T11:25:32.332Z,7864.00
2018-05-16T11:26:32.508Z,7812.00
2018-05-16T11:27:32.744Z,7776.00
2018-05-16T11:28:32.640Z,7644.00
2018-05-16T11:29:32.608Z,7392.00
2018-05-16T11:30:32.680Z,6984.00
2018-05-16T11:31:32.763Z,6672.00
2018-05-16T11:32:33.028Z,6512.00
2018-05-16T11:33:32.888Z,6488.00
2018-05-16T11:34:32.956Z,6364.00
2018-05-16T11:35:33.029Z,6340.00
2018-05-16T11:36:33.164Z,6312.00
2018-05-16T11:37:33.164Z,6320.00
2018-05-16T11:38:33.236Z,6340.00
2018-05-16T11:39:33.524Z,6436.00
2018-05-16T11:40:33.377Z,6524.00
2018-05-16T11:41:33.452Z,6436.00
2018-05-16T11:42:33.520Z,6480.00
2018-05-16T11:43:33.584Z,6512.00
2018-05-16T11:44:33.652Z,6648.00
2018-05-16T11:45:33.856Z,6636.00
2018-05-16T11:46:33.867Z,6528.00
2018-05-16T11:47:33.869Z,6652.00
2018-05-16T11:48:33.932Z,6752.00
2018-05-16T11:49:34.005Z,6900.00
2018-05-16T11:50:34.073Z,7104.00
2018-05-16T11:51:34.173Z,7268.00
2018-05-16T11:52:34.213Z,7140.00
2018-05-16T11:53:34.280Z,7124.00
2018-05-16T11:54:34.545Z,7024.00
2018-05-16T11:55:34.422Z,7020.00
2018-05-16T11:56:34.721Z,7076.00
2018-05-16T11:57:34.569Z,6988.00
2018-05-16T11:58:34.629Z,6972.00
2018-05-16T11:59:34.701Z,6720.00
2018-05-16T12:00:34.775Z,6496.00
2018-05-16T12:01:34.849Z,6264.00
2018-05-16T12:02:34.917Z,6128.00
2018-05-16T12:03:34.981Z,6148.00
2018-05-16T12:04:35.053Z,6312.00
2018-05-16T12:05:35.121Z,6536.00
2018-05-16T12:06:35.301Z,6424.00
2018-05-16T12:07:35.261Z,6164.00
2018-05-16T12:08:35.329Z,5972.00
2018-05-16T12:09:35.641Z,5620.00
2018-05-16T12:10:35.521Z,5384.00
2018-05-16T12:11:35.545Z,5216.00
2018-05-16T12:12:35.617Z,5144.00
2018-05-16T12:13:35.681Z,5272.00
2018-05-16T12:14:35.852Z,5516.00
2018-05-16T12:15:35.817Z,5856.00
2018-05-16T12:16:35.897Z,6124.00
2018-05-16T12:17:35.965Z,6256.00
2018-05-16T12:18:36.032Z,6280.00
2018-05-16T12:19:36.098Z,6356.00
2018-05-16T12:20:36.170Z,6512.00
2018-05-16T12:21:36.441Z,6628.00
2018-05-16T12:22:36.382Z,6592.00